Time;durP1;ratioP1;P1;durP2;ratioP2;P2;SDS_P1;SDS_P2;PMS_P1;PMS_P2;Temp;Humidity;BMP_temperature;BMP_pressure;BME280_temperature;BME280_humidity;BME280_pressure;Samples;Min_cycle;Max_cycle;Signal;HPM_P1;HPM_P2
2023/01/27 00:01:27;;;;;;;1.90;1.30;;;3.90;43.00;;;;;;4933881;29;20180;-69
2023/01/27 00:03:53;;;;;;;1.90;1.20;;;4.20;43.10;;;;;;4932653;29;20199;-69
2023/01/27 00:06:19;;;;;;;1.80;1.10;;;4.40;42.10;;;;;;4933187;29;20711;-69
2023/01/27 00:08:45;;;;;;;1.80;1.20;;;4.30;42.50;;;;;;4934016;29;20227;-69
2023/01/27 00:13:55;;;;;;;1.90;1.30;;;4.60;41.30;;;;;;4934405;29;20218;-68
2023/01/27 00:16:20;;;;;;;1.70;1.10;;;4.70;41.30;;;;;;4936066;29;20236;-69
2023/01/27 00:18:46;;;;;;;1.90;1.23;;;4.60;40.80;;;;;;4936935;29;20502;-69
2023/01/27 00:26:40;;;;;;;2.50;1.60;;;4.50;41.50;;;;;;4935345;29;20725;-69
2023/01/27 00:29:05;;;;;;;1.80;1.20;;;4.50;40.70;;;;;;4936934;29;20183;-69
2023/01/27 00:34:15;;;;;;;1.90;1.20;;;4.70;40.60;;;;;;4936797;29;20206;-69
2023/01/27 00:36:41;;;;;;;1.90;1.20;;;4.40;41.00;;;;;;4933220;29;20680;-69
2023/01/27 00:39:09;;;;;;;2.83;1.67;;;4.20;41.40;;;;;;4936209;29;20239;-69
2023/01/27 00:41:35;;;;;;;1.80;1.20;;;4.40;41.00;;;;;;4936365;29;20971;-69
2023/01/27 00:44:01;;;;;;;1.80;1.10;;;4.30;40.30;;;;;;4936344;29;20188;-69
2023/01/27 00:46:27;;;;;;;2.10;1.50;;;4.40;40.60;;;;;;4917944;29;20464;-69
2023/01/27 00:48:53;;;;;;;3.47;1.92;;;4.40;41.50;;;;;;4936615;29;20266;-70
2023/01/27 00:51:19;;;;;;;1.93;1.23;;;4.50;41.10;;;;;;4936235;29;20207;-69
2023/01/27 00:53:45;;;;;;;1.80;1.10;;;4.40;41.30;;;;;;4935714;29;20184;-69
2023/01/27 00:56:10;;;;;;;1.80;1.27;;;4.60;40.70;;;;;;4935327;29;20578;-69
2023/01/27 00:58:36;;;;;;;1.83;1.23;;;4.70;40.30;;;;;;4934618;29;20436;-68
2023/01/27 01:01:05;;;;;;;2.00;1.30;;;4.10;40.60;;;;;;4934311;29;20176;-69
2023/01/27 01:03:33;;;;;;;1.80;1.10;;;3.90;41.90;;;;;;4934548;29;20184;-69
2023/01/27 01:06:09;;;;;;;2.00;1.27;;;3.80;41.00;;;;;;4934923;29;20428;-69
2023/01/27 01:08:36;;;;;;;1.90;1.20;;;4.20;40.60;;;;;;4933213;29;20176;-69
2023/01/27 01:11:03;;;;;;;2.20;1.55;;;4.20;40.90;;;;;;4938495;29;20267;-69
2023/01/27 01:13:28;;;;;;;1.70;1.00;;;4.30;40.90;;;;;;4936732;29;20188;-68
2023/01/27 01:15:56;;;;;;;2.00;1.30;;;4.40;40.50;;;;;;4945895;28;20218;-69
2023/01/27 01:18:22;;;;;;;1.90;1.27;;;4.40;40.20;;;;;;4943468;29;20438;-68
2023/01/27 01:20:48;;;;;;;2.00;1.10;;;4.50;40.30;;;;;;4935150;29;20194;-68
2023/01/27 01:23:14;;;;;;;2.60;1.60;;;4.50;40.40;;;;;;4935056;29;20409;-68
2023/01/27 01:25:41;;;;;;;1.90;1.10;;;4.40;40.20;;;;;;4934841;29;20517;-68
2023/01/27 01:28:07;;;;;;;1.80;1.10;;;4.40;40.70;;;;;;4935617;29;20614;-68
2023/01/27 01:30:34;;;;;;;5.20;1.65;;;4.50;40.60;;;;;;4935161;29;20184;-68
2023/01/27 01:33:02;;;;;;;2.00;1.30;;;4.50;40.30;;;;;;4935272;29;20210;-68
2023/01/27 01:35:28;;;;;;;2.97;1.85;;;4.50;40.70;;;;;;4933013;29;20180;-67
2023/01/27 01:37:54;;;;;;;2.90;2.10;;;4.50;39.60;;;;;;4935416;29;20180;-68
2023/01/27 01:40:21;;;;;;;1.90;1.20;;;4.80;40.10;;;;;;4934494;29;20195;-68
2023/01/27 01:42:50;;;;;;;1.90;1.20;;;4.60;40.10;;;;;;4935104;29;20184;-68
2023/01/27 01:45:30;;;;;;;2.25;1.52;;;4.50;39.90;;;;;;4934647;29;20206;-68
2023/01/27 01:48:04;;;;;;;2.90;1.85;;;4.50;39.90;;;;;;4936364;29;20535;-68
2023/01/27 01:50:30;;;;;;;1.90;1.20;;;4.50;39.70;;;;;;4935826;29;20172;-68
2023/01/27 01:52:57;;;;;;;2.30;1.70;;;4.50;39.90;;;;;;4936476;29;20286;-68
2023/01/27 01:55:23;;;;;;;2.72;1.38;;;4.40;40.70;;;;;;4930620;29;20786;-68
2023/01/27 01:57:50;;;;;;;3.40;1.80;;;4.50;40.60;;;;;;4935560;29;20188;-68
2023/01/27 02:00:16;;;;;;;4.85;1.58;;;4.50;40.00;;;;;;4937435;29;20183;-68
2023/01/27 02:02:42;;;;;;;2.00;1.33;;;4.50;39.50;;;;;;4934409;29;20180;-68
2023/01/27 02:05:31;;;;;;;1.90;1.20;;;4.70;39.20;;;;;;4935869;29;20447;-68
2023/01/27 02:08:14;;;;;;;2.55;1.80;;;4.60;40.00;;;;;;4935653;29;20191;-68
2023/01/27 02:10:41;;;;;;;2.33;1.60;;;4.40;39.60;;;;;;4925097;29;20667;-68
2023/01/27 02:13:06;;;;;;;1.90;1.25;;;4.30;40.30;;;;;;4933342;29;20220;-68
2023/01/27 02:15:33;;;;;;;3.03;1.63;;;4.20;39.90;;;;;;4933933;29;20656;-67
2023/01/27 02:18:00;;;;;;;2.55;1.50;;;4.00;41.10;;;;;;4933621;29;20560;-68
2023/01/27 02:20:38;;;;;;;1.95;1.25;;;4.30;40.50;;;;;;4935040;29;20195;-68
2023/01/27 02:23:34;;;;;;;2.15;1.30;;;4.30;40.90;;;;;;4935558;29;20215;-68
2023/01/27 02:26:16;;;;;;;2.40;1.73;;;4.20;40.70;;;;;;4913659;29;20221;-68
2023/01/27 02:28:42;;;;;;;1.95;1.25;;;4.20;41.00;;;;;;4928772;29;20196;-69
2023/01/27 02:31:08;;;;;;;1.80;1.10;;;4.10;41.40;;;;;;4936082;29;20184;-68
2023/01/27 02:33:34;;;;;;;2.25;1.52;;;4.20;41.30;;;;;;4918572;29;20188;-68
2023/01/27 02:36:02;;;;;;;2.10;1.50;;;4.20;41.30;;;;;;4917648;29;20718;-68
2023/01/27 02:38:32;;;;;;;2.00;1.30;;;4.30;40.00;;;;;;4933661;29;20950;-69
2023/01/27 02:41:08;;;;;;;1.80;1.10;;;4.30;40.60;;;;;;4934560;29;20192;-69
2023/01/27 02:43:34;;;;;;;1.90;1.20;;;4.30;40.50;;;;;;4934436;29;20183;-69
2023/01/27 02:45:59;;;;;;;1.90;1.30;;;4.60;41.10;;;;;;4933801;29;20200;-69
2023/01/27 02:48:25;;;;;;;1.80;1.10;;;4.70;40.00;;;;;;4934586;29;20215;-69
2023/01/27 02:50:51;;;;;;;2.47;1.77;;;4.60;40.00;;;;;;4934460;29;20184;-69
2023/01/27 02:53:16;;;;;;;3.30;1.90;;;4.10;40.60;;;;;;4934109;29;20585;-69
2023/01/27 02:55:42;;;;;;;2.63;1.50;;;3.80;41.60;;;;;;4934803;29;20210;-69
2023/01/27 02:58:07;;;;;;;2.20;1.50;;;4.00;41.40;;;;;;4936029;29;20648;-69
2023/01/27 03:00:34;;;;;;;4.17;2.27;;;4.30;40.50;;;;;;4934180;29;20176;-69
2023/01/27 03:02:59;;;;;;;1.90;1.20;;;4.50;40.10;;;;;;4935221;29;20195;-69
2023/01/27 03:05:26;;;;;;;2.50;1.40;;;4.40;40.20;;;;;;4935423;29;20180;-69
2023/01/27 03:07:52;;;;;;;1.90;1.20;;;4.60;39.80;;;;;;4918432;29;20188;-70
2023/01/27 03:10:17;;;;;;;1.90;1.20;;;4.60;39.80;;;;;;4933567;29;20565;-69
2023/01/27 03:12:44;;;;;;;2.10;1.50;;;4.70;39.70;;;;;;4934243;29;20692;-69
2023/01/27 03:18:10;;;;;;;2.50;1.63;;;4.60;38.90;;;;;;4935144;29;20650;-69
2023/01/27 03:20:35;;;;;;;1.90;1.20;;;4.80;39.00;;;;;;4916477;29;20615;-69
2023/01/27 03:23:02;;;;;;;1.93;1.20;;;4.70;38.90;;;;;;4933333;29;20187;-69
2023/01/27 03:25:28;;;;;;;1.90;1.20;;;4.80;39.00;;;;;;4932555;29;21787;-68
2023/01/27 03:27:54;;;;;;;1.93;1.27;;;4.40;38.80;;;;;;4934317;29;20574;-68
2023/01/27 03:30:20;;;;;;;1.88;1.20;;;4.30;40.50;;;;;;4933990;29;20690;-69
2023/01/27 03:32:46;;;;;;;2.33;1.67;;;4.40;40.20;;;;;;4932817;29;20215;-69
2023/01/27 03:35:15;;;;;;;2.00;1.30;;;4.50;39.90;;;;;;4935460;29;20188;-69
2023/01/27 03:48:40;;;;;;;1.90;1.30;;;4.70;39.60;;;;;;4938681;29;20602;-69
2023/01/27 03:51:07;;;;;;;2.07;1.27;;;4.60;39.20;;;;;;4938329;29;20184;-68
2023/01/27 03:53:34;;;;;;;1.92;1.30;;;4.10;40.40;;;;;;4936510;29;20448;-69
2023/01/27 03:55:59;;;;;;;1.85;1.20;;;4.30;40.70;;;;;;4921066;29;20225;-69
2023/01/27 03:58:28;;;;;;;2.10;1.47;;;4.40;39.60;;;;;;4938110;29;20640;-69
2023/01/27 04:00:55;;;;;;;2.05;1.50;;;4.40;39.90;;;;;;4938032;29;20179;-70
2023/01/27 04:08:55;;;;;;;1.92;1.30;;;4.50;40.00;;;;;;4918928;29;20207;-69
2023/01/27 04:14:07;;;;;;;1.90;1.20;;;4.50;40.00;;;;;;4922370;29;20255;-69
2023/01/27 04:16:35;;;;;;;1.90;1.27;;;4.50;39.60;;;;;;4936290;29;20212;-68
2023/01/27 04:19:02;;;;;;;2.75;2.08;;;4.70;39.20;;;;;;4919655;29;20184;-69
2023/01/27 04:21:29;;;;;;;2.60;1.50;;;4.70;39.50;;;;;;4937081;29;20184;-68
2023/01/27 04:23:54;;;;;;;1.95;1.20;;;4.60;39.40;;;;;;4936579;29;20215;-67
2023/01/27 04:26:21;;;;;;;2.07;1.30;;;4.40;39.80;;;;;;4934876;29;20231;-67
2023/01/27 04:28:48;;;;;;;1.90;1.10;;;4.50;40.10;;;;;;4936853;29;20514;-67
2023/01/27 04:31:14;;;;;;;2.30;1.65;;;4.60;39.30;;;;;;4935701;29;20679;-68
2023/01/27 04:33:41;;;;;;;2.10;1.30;;;4.50;39.90;;;;;;4923708;29;20186;-67
2023/01/27 04:36:07;;;;;;;1.83;1.17;;;4.60;39.90;;;;;;4942431;29;20734;-67
2023/01/27 04:38:32;;;;;;;1.90;1.10;;;4.70;39.30;;;;;;4936619;29;20184;-67
2023/01/27 04:40:58;;;;;;;1.90;1.20;;;4.70;39.70;;;;;;4936682;29;20423;-70
2023/01/27 04:43:24;;;;;;;2.00;1.37;;;4.70;39.40;;;;;;4915659;29;20628;-71
2023/01/27 04:45:49;;;;;;;2.93;1.67;;;4.60;39.30;;;;;;4935548;29;20215;-73
2023/01/27 04:48:15;;;;;;;2.10;1.43;;;4.40;40.40;;;;;;4936122;29;20274;-70
2023/01/27 04:50:41;;;;;;;2.40;1.63;;;4.10;41.00;;;;;;4935770;29;20537;-69
2023/01/27 04:53:07;;;;;;;1.97;1.30;;;4.30;40.60;;;;;;4936275;29;20831;-68
2023/01/27 04:55:32;;;;;;;2.00;1.40;;;4.30;40.10;;;;;;4931677;29;20483;-67
2023/01/27 04:57:58;;;;;;;1.93;1.20;;;4.40;40.30;;;;;;4934650;29;20695;-69
2023/01/27 05:00:23;;;;;;;1.90;1.23;;;4.50;40.00;;;;;;4933696;29;20184;-67
2023/01/27 05:02:49;;;;;;;2.10;1.33;;;4.40;39.80;;;;;;4935863;29;20195;-68
2023/01/27 05:05:15;;;;;;;2.60;1.97;;;4.60;39.60;;;;;;4936241;29;20202;-69
2023/01/27 05:07:40;;;;;;;1.90;1.20;;;4.70;39.20;;;;;;4935711;29;20619;-69
2023/01/27 05:10:06;;;;;;;1.87;1.13;;;4.70;39.30;;;;;;4935342;29;20184;-68
2023/01/27 05:12:32;;;;;;;1.77;1.10;;;4.50;39.50;;;;;;4933119;29;20219;-70
2023/01/27 05:14:59;;;;;;;2.77;1.87;;;4.30;40.00;;;;;;4935719;29;20184;-68
2023/01/27 05:17:26;;;;;;;2.42;1.50;;;4.30;41.20;;;;;;4919367;29;20450;-68
2023/01/27 05:19:52;;;;;;;3.88;2.00;;;4.40;40.50;;;;;;4936165;29;20798;-67
2023/01/27 05:22:17;;;;;;;2.30;1.50;;;4.40;40.40;;;;;;4933499;29;20204;-68
2023/01/27 05:24:43;;;;;;;1.90;1.20;;;4.10;41.30;;;;;;4934132;29;20214;-68
2023/01/27 05:27:09;;;;;;;2.10;1.40;;;4.20;41.10;;;;;;4934869;29;20214;-68
2023/01/27 05:29:34;;;;;;;2.03;1.33;;;4.40;40.60;;;;;;4935600;29;20187;-71
2023/01/27 05:32:00;;;;;;;1.90;1.30;;;4.30;40.90;;;;;;4935399;29;20196;-68
2023/01/27 05:34:25;;;;;;;1.80;1.20;;;4.50;40.40;;;;;;4918375;29;20180;-68
2023/01/27 05:36:51;;;;;;;1.93;1.27;;;4.60;40.30;;;;;;4932979;29;20660;-68
2023/01/27 05:39:17;;;;;;;1.90;1.23;;;4.60;40.10;;;;;;4933943;29;20180;-67
2023/01/27 05:41:43;;;;;;;2.75;1.75;;;4.50;40.00;;;;;;4938743;29;20188;-69
2023/01/27 05:44:10;;;;;;;1.93;1.20;;;4.40;40.30;;;;;;4933809;29;20191;-67
2023/01/27 05:46:38;;;;;;;1.83;1.20;;;4.70;40.30;;;;;;4934672;29;20283;-69
2023/01/27 05:49:04;;;;;;;2.00;1.30;;;4.40;40.10;;;;;;4935237;29;20191;-68
2023/01/27 05:51:34;;;;;;;1.80;1.10;;;4.10;41.50;;;;;;4931904;29;20207;-68
2023/01/27 05:53:59;;;;;;;1.90;1.23;;;3.80;41.70;;;;;;4931876;29;20274;-69
2023/01/27 05:56:25;;;;;;;1.80;1.20;;;4.10;41.90;;;;;;4933977;29;20291;-68
2023/01/27 05:58:53;;;;;;;3.30;2.13;;;4.30;41.50;;;;;;4932818;29;20191;-68
2023/01/27 06:01:22;;;;;;;1.90;1.30;;;4.50;40.20;;;;;;4937875;29;20183;-70
2023/01/27 06:03:48;;;;;;;2.30;1.60;;;4.60;39.70;;;;;;4934154;29;20176;-67
2023/01/27 06:06:17;;;;;;;2.00;1.13;;;4.40;40.30;;;;;;4934358;29;20686;-68
2023/01/27 06:08:43;;;;;;;2.78;1.70;;;4.40;40.30;;;;;;4934662;29;20907;-69
2023/01/27 06:11:09;;;;;;;2.13;1.40;;;4.30;39.50;;;;;;4934915;29;20191;-68
2023/01/27 06:13:35;;;;;;;1.90;1.20;;;4.40;40.50;;;;;;4917533;29;20464;-72
2023/01/27 06:16:09;;;;;;;1.90;1.30;;;4.50;40.10;;;;;;4932324;29;20196;-69
2023/01/27 06:18:36;;;;;;;2.05;1.40;;;4.70;40.00;;;;;;4933977;29;20206;-69
2023/01/27 06:21:03;;;;;;;2.10;1.45;;;4.50;39.40;;;;;;4935075;29;20207;-69
2023/01/27 06:23:29;;;;;;;2.00;1.30;;;4.40;39.90;;;;;;4934006;29;20183;-69
2023/01/27 06:25:59;;;;;;;1.80;1.10;;;4.60;39.10;;;;;;4934858;29;20251;-69
2023/01/27 06:28:25;;;;;;;1.80;1.20;;;4.60;39.50;;;;;;4934652;29;20188;-68
2023/01/27 06:30:51;;;;;;;3.70;2.83;;;4.60;39.00;;;;;;4934781;29;20655;-68
2023/01/27 06:33:17;;;;;;;2.85;1.83;;;4.60;39.00;;;;;;4934430;29;20659;-68
2023/01/27 06:35:43;;;;;;;2.47;1.70;;;4.80;39.20;;;;;;4934733;29;20211;-68
2023/01/27 06:38:12;;;;;;;2.00;1.40;;;4.70;38.90;;;;;;4934890;29;20180;-69
2023/01/27 06:40:37;;;;;;;2.30;1.40;;;4.50;39.80;;;;;;4920044;29;20191;-69
2023/01/27 06:43:03;;;;;;;2.00;1.30;;;4.40;41.40;;;;;;4921318;29;20184;-69
2023/01/27 06:45:29;;;;;;;1.87;1.17;;;3.70;42.00;;;;;;4934898;29;20430;-70
2023/01/27 06:48:00;;;;;;;2.00;1.40;;;3.70;42.90;;;;;;4939199;29;20184;-69
2023/01/27 06:50:28;;;;;;;1.80;1.10;;;3.70;42.80;;;;;;4936256;29;20184;-70
2023/01/27 06:52:59;;;;;;;1.95;1.30;;;3.90;41.80;;;;;;4933833;29;20679;-70
2023/01/27 06:55:26;;;;;;;1.80;1.13;;;4.10;41.70;;;;;;4920229;29;20176;-70
2023/01/27 06:57:51;;;;;;;2.22;1.38;;;4.50;40.50;;;;;;4937081;29;20615;-69
2023/01/27 07:00:17;;;;;;;1.90;1.10;;;4.40;41.00;;;;;;4937685;29;20251;-70
2023/01/27 07:02:43;;;;;;;3.05;1.70;;;4.20;40.80;;;;;;4939901;29;20180;-70
2023/01/27 07:05:10;;;;;;;2.10;1.37;;;4.20;41.00;;;;;;4938629;29;20792;-69
2023/01/27 07:07:36;;;;;;;3.00;1.45;;;4.30;41.60;;;;;;4939265;29;20207;-70
2023/01/27 07:10:01;;;;;;;2.80;1.93;;;4.50;40.50;;;;;;4938127;29;20554;-69
2023/01/27 07:12:27;;;;;;;2.00;1.30;;;4.50;40.30;;;;;;4938076;29;20515;-69
2023/01/27 07:14:53;;;;;;;1.80;1.10;;;4.50;39.90;;;;;;4937154;29;20416;-69
2023/01/27 07:17:18;;;;;;;3.13;2.27;;;4.60;40.20;;;;;;4934297;29;20711;-69
2023/01/27 07:19:44;;;;;;;3.43;2.37;;;4.10;40.60;;;;;;4937279;29;20195;-69
2023/01/27 07:22:09;;;;;;;2.00;1.20;;;4.20;41.40;;;;;;4940186;29;20203;-69
2023/01/27 07:24:35;;;;;;;4.03;2.33;;;4.20;41.10;;;;;;4937719;29;20172;-69
2023/01/27 07:27:01;;;;;;;9.13;2.83;;;3.90;42.80;;;;;;4937998;29;20192;-69
2023/01/27 07:29:26;;;;;;;1.90;1.30;;;4.10;42.00;;;;;;4938289;29;20544;-69
2023/01/27 07:31:52;;;;;;;1.80;1.10;;;4.30;41.40;;;;;;4924992;29;20203;-69
2023/01/27 07:34:17;;;;;;;2.17;1.40;;;3.50;43.30;;;;;;4937598;29;20589;-69
2023/01/27 07:36:43;;;;;;;1.80;1.17;;;3.00;45.00;;;;;;4937752;29;20215;-69
2023/01/27 07:39:09;;;;;;;2.10;1.40;;;2.60;47.90;;;;;;4920693;29;20180;-68
2023/01/27 07:41:34;;;;;;;2.10;1.40;;;3.20;46.80;;;;;;4937790;29;20187;-67
2023/01/27 07:44:00;;;;;;;2.10;1.53;;;3.80;44.30;;;;;;4938045;29;20303;-68
2023/01/27 07:46:25;;;;;;;1.80;1.10;;;4.20;42.50;;;;;;4937630;29;20199;-68
2023/01/27 07:48:51;;;;;;;1.90;1.30;;;4.30;42.80;;;;;;4937539;29;20179;-68
2023/01/27 07:51:17;;;;;;;1.80;1.20;;;4.20;42.70;;;;;;4937534;29;20262;-68
2023/01/27 07:53:43;;;;;;;2.00;1.30;;;4.20;42.80;;;;;;4937348;29;20526;-68
2023/01/27 07:56:11;;;;;;;1.90;1.20;;;4.10;42.70;;;;;;4937681;29;20436;-68
2023/01/27 07:58:38;;;;;;;1.98;1.38;;;4.20;41.90;;;;;;4937159;29;20227;-68
2023/01/27 08:01:08;;;;;;;2.55;1.52;;;3.90;42.60;;;;;;4937315;29;20566;-68
2023/01/27 08:03:34;;;;;;;1.80;1.10;;;4.10;43.00;;;;;;4920029;29;20200;-68
2023/01/27 08:06:08;;;;;;;2.42;1.83;;;4.10;43.00;;;;;;4938293;29;20200;-68
2023/01/27 08:08:35;;;;;;;1.80;1.10;;;4.30;42.30;;;;;;4940065;29;20168;-68
2023/01/27 08:11:02;;;;;;;1.90;1.20;;;4.20;42.20;;;;;;4938798;29;20180;-68
2023/01/27 08:13:29;;;;;;;1.83;1.20;;;4.40;42.10;;;;;;4919778;29;20208;-68
2023/01/27 08:15:57;;;;;;;1.90;1.20;;;4.20;42.60;;;;;;4936940;29;20257;-68
2023/01/27 08:18:23;;;;;;;2.10;1.30;;;4.30;42.10;;;;;;4937256;29;20199;-68
2023/01/27 08:20:51;;;;;;;1.90;1.15;;;4.30;42.10;;;;;;4936865;29;20236;-68
2023/01/27 08:23:17;;;;;;;1.80;1.10;;;4.30;43.00;;;;;;4935644;29;20187;-68
2023/01/27 08:25:51;;;;;;;2.00;1.40;;;4.40;41.70;;;;;;4936820;29;20204;-68
2023/01/27 08:28:18;;;;;;;1.80;1.10;;;4.50;42.30;;;;;;4937008;29;20214;-68
2023/01/27 08:30:44;;;;;;;3.95;1.65;;;4.30;42.20;;;;;;4936383;29;20656;-68
2023/01/27 08:33:10;;;;;;;2.20;1.37;;;4.30;42.40;;;;;;4936627;29;20210;-68
2023/01/27 08:35:37;;;;;;;1.90;1.20;;;4.50;42.60;;;;;;4935159;29;20786;-68
2023/01/27 08:38:04;;;;;;;2.88;1.48;;;4.60;42.00;;;;;;4937353;29;20583;-68
2023/01/27 08:40:30;;;;;;;2.40;1.52;;;4.40;41.80;;;;;;4919256;29;20526;-68
2023/01/27 08:42:55;;;;;;;2.00;1.40;;;4.60;41.90;;;;;;4936384;29;20187;-68
2023/01/27 08:45:21;;;;;;;1.80;1.10;;;3.60;44.00;;;;;;4936372;29;20918;-68
2023/01/27 08:47:47;;;;;;;2.00;1.40;;;4.00;45.20;;;;;;4935279;29;20203;-68
2023/01/27 08:50:13;;;;;;;2.77;1.47;;;3.60;44.00;;;;;;4919491;29;20947;-68
2023/01/27 08:52:38;;;;;;;4.43;2.70;;;4.00;45.20;;;;;;4935999;29;20204;-68
2023/01/27 08:55:04;;;;;;;4.47;1.70;;;4.10;43.70;;;;;;4936459;29;20180;-68
2023/01/27 08:57:31;;;;;;;1.90;1.20;;;3.90;43.00;;;;;;4936299;29;20200;-68
2023/01/27 08:59:57;;;;;;;2.10;1.40;;;3.20;43.70;;;;;;4936100;29;20172;-68
2023/01/27 09:02:23;;;;;;;2.38;1.67;;;3.20;45.40;;;;;;4936364;29;20180;-68
2023/01/27 09:04:49;;;;;;;1.87;1.17;;;3.50;43.90;;;;;;4936029;29;20191;-68
2023/01/27 09:07:16;;;;;;;2.17;1.50;;;4.10;42.90;;;;;;4936025;29;20467;-67
2023/01/27 09:09:45;;;;;;;2.15;1.40;;;3.70;42.70;;;;;;4935965;29;20184;-68
2023/01/27 09:12:11;;;;;;;2.33;1.40;;;3.80;44.60;;;;;;4935844;29;20618;-68
2023/01/27 09:14:36;;;;;;;7.20;2.13;;;4.30;43.10;;;;;;4935744;29;20188;-68
2023/01/27 09:17:02;;;;;;;2.03;1.40;;;4.70;41.10;;;;;;4936045;29;20207;-68
2023/01/27 09:19:28;;;;;;;1.80;1.20;;;4.80;40.60;;;;;;4936217;29;20266;-69
2023/01/27 09:21:54;;;;;;;1.80;1.10;;;4.50;40.70;;;;;;4935993;29;20247;-68
2023/01/27 09:24:19;;;;;;;1.90;1.10;;;4.60;41.20;;;;;;4935508;29;20188;-68
2023/01/27 09:26:45;;;;;;;2.10;1.43;;;4.70;40.40;;;;;;4935553;29;20204;-68
2023/01/27 09:29:11;;;;;;;1.80;1.20;;;4.80;40.40;;;;;;4936113;29;20184;-69
2023/01/27 09:31:36;;;;;;;1.80;1.10;;;4.70;39.90;;;;;;4935503;29;20263;-68
2023/01/27 09:34:03;;;;;;;1.70;1.03;;;4.30;41.20;;;;;;4935590;29;20180;-68
2023/01/27 09:36:31;;;;;;;2.10;1.50;;;4.30;40.50;;;;;;4935141;29;20725;-68
2023/01/27 09:39:04;;;;;;;3.78;1.85;;;4.30;40.00;;;;;;4935545;29;20247;-68
2023/01/27 09:41:56;;;;;;;1.90;1.20;;;4.40;40.30;;;;;;4935411;29;20180;-68
2023/01/27 09:44:52;;;;;;;2.13;1.38;;;4.60;39.40;;;;;;4935219;29;20167;-68
2023/01/27 09:47:39;;;;;;;1.90;1.20;;;4.30;39.70;;;;;;4918314;29;20202;-69
2023/01/27 09:50:26;;;;;;;1.80;1.10;;;4.20;40.50;;;;;;4935392;29;20172;-68
2023/01/27 09:53:17;;;;;;;1.92;1.20;;;4.20;41.00;;;;;;4935144;29;20608;-68
2023/01/27 09:56:04;;;;;;;1.83;1.20;;;4.30;39.70;;;;;;4882114;29;20727;-68
2023/01/27 09:58:33;;;;;;;2.38;1.70;;;4.50;39.00;;;;;;4936727;29;20179;-68
2023/01/27 10:01:16;;;;;;;1.80;1.10;;;4.10;41.50;;;;;;4934832;29;20198;-68
2023/01/27 10:04:02;;;;;;;1.90;1.10;;;4.40;40.50;;;;;;4933759;29;20183;-69
2023/01/27 10:06:42;;;;;;;2.15;1.55;;;4.50;39.60;;;;;;4930421;29;20207;-69
2023/01/27 10:09:23;;;;;;;2.30;1.33;;;4.30;39.50;;;;;;4916294;29;20208;-68
2023/01/27 10:12:10;;;;;;;1.98;1.30;;;4.50;39.70;;;;;;4915563;29;20203;-69
2023/01/27 10:14:50;;;;;;;1.80;1.20;;;4.60;39.00;;;;;;4927280;29;20195;-69
2023/01/27 10:18:10;;;;;;;2.00;1.27;;;4.80;38.60;;;;;;4934897;29;20200;-69
2023/01/27 10:20:51;;;;;;;2.10;1.40;;;4.60;38.60;;;;;;4894840;29;20193;-69
2023/01/27 10:23:35;;;;;;;1.80;1.20;;;4.30;38.70;;;;;;4894820;29;20200;-69
2023/01/27 10:26:27;;;;;;;1.90;1.20;;;4.30;39.30;;;;;;4895200;29;20217;-68
2023/01/27 10:29:07;;;;;;;3.38;1.63;;;4.70;38.80;;;;;;4895652;29;20688;-68
2023/01/27 10:31:47;;;;;;;1.90;1.20;;;4.50;38.50;;;;;;4883718;29;20235;-68
2023/01/27 10:34:27;;;;;;;1.90;1.30;;;4.60;37.50;;;;;;4876294;29;20182;-68
2023/01/27 10:37:09;;;;;;;1.80;1.15;;;4.20;38.70;;;;;;4875998;29;20215;-68
2023/01/27 10:40:14;;;;;;;1.90;1.20;;;4.10;39.40;;;;;;4876894;29;20200;-69
2023/01/27 10:42:57;;;;;;;2.00;1.30;;;4.40;38.60;;;;;;4875531;29;20579;-70
2023/01/27 10:45:47;;;;;;;1.83;1.20;;;4.30;38.30;;;;;;4875613;29;20198;-70
2023/01/27 10:48:28;;;;;;;3.88;2.40;;;4.10;38.90;;;;;;4860118;29;20669;-70
2023/01/27 10:51:07;;;;;;;2.90;1.92;;;4.20;38.90;;;;;;4875974;29;20189;-70
2023/01/27 10:54:06;;;;;;;2.08;1.30;;;4.40;39.20;;;;;;4860924;29;20218;-70
2023/01/27 10:56:34;;;;;;;2.50;1.40;;;4.60;37.30;;;;;;4893959;29;20200;-70
2023/01/27 10:59:15;;;;;;;2.25;1.55;;;4.80;37.30;;;;;;4894176;29;20185;-70
2023/01/27 11:02:09;;;;;;;1.90;1.30;;;4.60;36.30;;;;;;4892543;29;20573;-69
2023/01/27 11:04:48;;;;;;;2.55;1.77;;;4.20;39.10;;;;;;4893648;29;20190;-70
2023/01/27 11:07:20;;;;;;;2.30;1.55;;;4.30;39.30;;;;;;4894023;29;20628;-70
2023/01/27 11:09:51;;;;;;;1.95;1.30;;;4.60;38.70;;;;;;4894265;29;20180;-69
2023/01/27 11:12:22;;;;;;;1.90;1.30;;;3.90;39.00;;;;;;4893676;29;20537;-70
2023/01/27 11:14:50;;;;;;;1.70;1.10;;;3.00;43.00;;;;;;4894162;29;20165;-70
2023/01/27 11:17:26;;;;;;;8.15;2.75;;;3.40;42.90;;;;;;4899149;29;20198;-69
2023/01/27 11:20:11;;;;;;;3.13;1.50;;;4.00;40.80;;;;;;4934373;29;20633;-70
2023/01/27 11:22:58;;;;;;;2.00;1.40;;;4.40;39.50;;;;;;4933795;29;20231;-70
2023/01/27 11:25:45;;;;;;;1.90;1.27;;;4.60;38.80;;;;;;4934301;29;20176;-70
2023/01/27 11:28:36;;;;;;;2.00;1.35;;;4.80;38.60;;;;;;4934338;29;20180;-68
2023/01/27 11:31:03;;;;;;;2.10;1.30;;;4.70;37.90;;;;;;4933942;29;20173;-70
2023/01/27 11:33:56;;;;;;;2.65;2.05;;;4.80;38.00;;;;;;4933629;29;20216;-69
2023/01/27 11:36:23;;;;;;;1.80;1.20;;;4.80;38.40;;;;;;4933865;29;20212;-69
2023/01/27 11:38:49;;;;;;;1.90;1.23;;;4.80;38.10;;;;;;4934020;29;20327;-69
2023/01/27 11:41:14;;;;;;;1.80;1.10;;;4.90;37.90;;;;;;4933696;29;20168;-69
2023/01/27 11:43:40;;;;;;;2.20;1.40;;;5.20;37.10;;;;;;4933444;29;20692;-69
2023/01/27 11:46:12;;;;;;;2.37;1.53;;;5.20;36.50;;;;;;4916912;29;20204;-69
2023/01/27 11:48:41;;;;;;;2.00;1.40;;;5.00;38.00;;;;;;4933838;29;20184;-69
2023/01/27 11:51:21;;;;;;;1.80;1.10;;;4.50;38.70;;;;;;4934129;29;20254;-69
2023/01/27 11:54:02;;;;;;;1.80;1.20;;;4.40;39.80;;;;;;4933622;29;20715;-70
2023/01/27 11:56:30;;;;;;;1.85;1.15;;;4.50;38.80;;;;;;4933899;29;20196;-70
2023/01/27 11:59:04;;;;;;;3.10;1.98;;;4.80;38.70;;;;;;4933856;29;20176;-69
2023/01/27 12:01:53;;;;;;;1.80;1.20;;;4.90;37.00;;;;;;4933962;29;20160;-70
2023/01/27 12:04:25;;;;;;;1.75;1.10;;;4.80;37.10;;;;;;4933639;29;20179;-70
2023/01/27 12:07:35;;;;;;;1.80;1.10;;;5.00;37.30;;;;;;4936067;29;20196;-69
2023/01/27 12:10:02;;;;;;;1.70;1.10;;;4.90;37.60;;;;;;4937225;29;20250;-69
2023/01/27 12:12:28;;;;;;;1.90;1.30;;;5.10;36.80;;;;;;4937044;29;20199;-70
2023/01/27 12:14:56;;;;;;;1.80;1.20;;;5.20;36.40;;;;;;4937106;29;20199;-69
2023/01/27 12:17:39;;;;;;;1.90;1.30;;;5.20;36.30;;;;;;4937174;29;20184;-70
2023/01/27 12:20:26;;;;;;;2.33;1.75;;;4.60;37.30;;;;;;4936094;29;20208;-69
2023/01/27 12:22:58;;;;;;;1.80;1.20;;;4.60;37.40;;;;;;4936375;29;20694;-69
2023/01/27 12:25:40;;;;;;;1.90;1.25;;;4.50;38.70;;;;;;4936726;29;20251;-70
2023/01/27 12:28:17;;;;;;;2.53;1.75;;;4.90;37.60;;;;;;4937086;29;20152;-71
2023/01/27 12:30:46;;;;;;;2.15;1.58;;;4.70;37.70;;;;;;4936927;29;20180;-70
2023/01/27 12:33:19;;;;;;;1.98;1.30;;;4.70;38.60;;;;;;4936462;29;20564;-70
2023/01/27 12:35:48;;;;;;;1.70;1.10;;;5.10;37.90;;;;;;4936581;29;20211;-70
2023/01/27 12:38:17;;;;;;;1.80;1.20;;;5.00;37.70;;;;;;4936888;29;20223;-70
2023/01/27 12:40:46;;;;;;;7.75;1.83;;;5.40;35.20;;;;;;4936687;29;20176;-70
2023/01/27 12:43:20;;;;;;;1.70;1.10;;;5.70;36.10;;;;;;4936688;29;20176;-70
2023/01/27 12:46:04;;;;;;;2.10;1.42;;;5.20;35.80;;;;;;4936486;29;20199;-70
2023/01/27 12:48:32;;;;;;;3.25;1.73;;;5.40;35.40;;;;;;4936545;29;20180;-70
2023/01/27 12:51:13;;;;;;;2.25;1.45;;;5.40;35.10;;;;;;4936652;29;20323;-70
2023/01/27 12:53:42;;;;;;;1.77;1.20;;;5.50;35.90;;;;;;4936283;29;20230;-70
2023/01/27 12:56:16;;;;;;;1.80;1.20;;;5.30;35.80;;;;;;4936522;29;20195;-70
2023/01/27 12:58:54;;;;;;;2.30;1.73;;;5.10;36.40;;;;;;4936359;29;20156;-70
2023/01/27 13:01:19;;;;;;;1.80;1.20;;;5.00;36.20;;;;;;4936253;29;20195;-69
2023/01/27 13:03:49;;;;;;;1.80;1.20;;;4.90;36.40;;;;;;4936081;29;20164;-70
2023/01/27 13:06:18;;;;;;;1.90;1.20;;;4.70;36.70;;;;;;4936358;29;20195;-70
2023/01/27 13:08:48;;;;;;;1.80;1.20;;;4.80;38.00;;;;;;4936219;29;20175;-70
2023/01/27 13:11:17;;;;;;;1.80;1.20;;;5.10;36.00;;;;;;4935939;29;20175;-70
2023/01/27 13:13:50;;;;;;;2.30;1.58;;;5.30;36.20;;;;;;4935846;29;20648;-70
2023/01/27 13:16:28;;;;;;;1.70;1.10;;;5.40;35.70;;;;;;4936262;29;20203;-70
2023/01/27 13:18:57;;;;;;;1.90;1.30;;;5.60;35.70;;;;;;4935102;29;20164;-70
2023/01/27 13:21:35;;;;;;;1.80;1.17;;;5.50;35.20;;;;;;4936235;29;20319;-70
2023/01/27 13:24:11;;;;;;;1.70;1.10;;;5.30;36.00;;;;;;4935581;29;20176;-70
2023/01/27 13:26:38;;;;;;;1.70;1.10;;;5.60;36.00;;;;;;4935843;29;20639;-70
2023/01/27 13:29:22;;;;;;;1.90;1.30;;;5.30;35.80;;;;;;4935826;29;20648;-70
2023/01/27 13:31:56;;;;;;;1.70;1.20;;;5.30;36.50;;;;;;4935756;29;20206;-70
2023/01/27 13:34:44;;;;;;;3.67;2.40;;;5.20;36.60;;;;;;4935546;29;20184;-70
2023/01/27 13:37:22;;;;;;;1.92;1.38;;;5.10;36.50;;;;;;4935464;29;20270;-70
2023/01/27 13:40:02;;;;;;;1.92;1.33;;;5.20;36.90;;;;;;4935658;29;20722;-70
2023/01/27 13:42:54;;;;;;;1.73;1.10;;;5.30;37.00;;;;;;4936049;29;20168;-69
2023/01/27 13:45:34;;;;;;;1.80;1.20;;;5.30;36.60;;;;;;4935513;29;20575;-70
2023/01/27 13:48:44;;;;;;;2.92;2.05;;;5.20;37.00;;;;;;4935426;29;20672;-70